Lindenau, Texas
Current Conditions -  °F | °C
As of 11:51 PM on Tuesday 27 Jan 2015 (Local Time) from KVCT Reporting Station
Clear Clear  
Wind Chill: 56°   Ceiling: Unl
Heat Index: 56°   Visibility: 10mi
Dew Point: 43°   Wind: 6mph
Humidity: 62%   Direction: 210°SSW
Pressure: 30.15"   Gusts: NA
Location:  29.0941°N, 97.191°W
Report Text: KVCT 280551Z AUTO 21005KT 10SM CLR 13/06 A3015 RMK AO2 SLP208 T01330061 10239 20133 402780078 50002
Loading
Personal Weather Stations






























Interactive Weather Map New forecast layout! Learn more

10-Day Weather Forecast

Advertisements
Track Severe Weather on mobile